LPCS Airport Information

Runway Information
Runway 17 Length 3904 ft width 98 ft
Elevation 326 ft Threshold 0 ft Heading 164
Runway 35 Length 3904 ft Width 98 ft
Elevation 287 ft Threshold 0 ft Heading 344
Airport Frequencies
Type GND Name GND Frequency 121.825 MHZ
Type TWR Name TWR Frequency 120.3 MHZ
Airport Navaids
Type NDB Name Cascais Frequency 359 KHZ
Type VOR-DME Name Cascais Frequency 114300 KHZ
Airport Weather Information & NOTAM
ADDS - METARS form results

(1057 UTC 22 February 2019)
Data provider http://aviationweather.gov/metar/data/
 
METAR text: LPCS 221030Z 09010KT 060V130 CAVOK 14/08 Q1027
Conditions at: LPCS (CASCAIS , PT) observed 1030 UTC 22 February 2019
Temperature: 14.0°C (57°F)
Dewpoint: 8.0°C (46°F) [RH = 67%]
Pressure (altimeter): 30.32 inches Hg (1027.0 mb)
Winds: from the E (90 degrees) at 12 MPH (10 knots; 5.1 m/s)
Visibility: 6 or more miles (10+ km)
Ceiling: ceiling and visibility are OK
Clouds: unknown
Weather: no significant weather observed at this time

METAR text: LPCS 221000Z 10008KT 060V130 9000 FEW014 13/09 Q1027
Conditions at: LPCS (CASCAIS , PT) observed 1000 UTC 22 February 2019
Temperature: 13.0°C (55°F)
Dewpoint: 9.0°C (48°F) [RH = 77%]
Pressure (altimeter): 30.32 inches Hg (1027.0 mb)
Winds: from the E (100 degrees) at 9 MPH (8 knots; 4.1 m/s)
Visibility: 6 miles ( 9 km)
Ceiling: at least 12,000 feet AGL
Clouds: few clouds at 1400 feet AGL
Weather: no significant weather observed at this time

Forecast for: LPCS (CASCAIS , PT)
Text: TAF LPCS 220800Z 2209/2218 09008KT 9999 FEW015
Forecast period: 0900 to 1200 UTC 22 February 2019
Forecast type: FROM: standard forecast or significant change
Winds: from the E (90 degrees) at 9 MPH (8 knots; 4.1 m/s)
Visibility: 6 or more miles 10+ km)
Ceiling: at least 12,000 feet AGL
Clouds: few clouds at 1500 feet AGL
Weather: no significant weather forecast for this period
Text: BECMG 2212/2215 17008KT CAVOK
Forecast period: 1200 to 1800 UTC 22 February 2019
Forecast type: BECOMING: Conditions expected to become as follows by 1500 UTC 22 February 2019
Winds: from the S (170 degrees) at 9 MPH (8 knots; 4.1 m/s)
Visibility: 6 or more miles 10+ km)
Ceiling: unknown
Clouds: missing
Weather: NSW  (no significant weather)